createdAt,value
2018-07-07T00:02:27.066Z,2.20
2018-07-07T00:04:55.560Z,3.60
2018-07-07T00:07:24.003Z,2.47
2018-07-07T00:09:52.493Z,2.53
2018-07-07T00:12:21.049Z,2.57
2018-07-07T00:14:49.633Z,2.73
2018-07-07T00:17:18.174Z,2.20
2018-07-07T00:19:46.656Z,2.67
2018-07-07T00:22:15.178Z,3.10
2018-07-07T00:24:43.727Z,2.50
2018-07-07T00:27:12.170Z,2.47
2018-07-07T00:29:40.591Z,3.07
2018-07-07T00:32:09.063Z,2.60
2018-07-07T00:34:37.689Z,2.60
2018-07-07T00:37:06.085Z,2.63
2018-07-07T00:39:34.614Z,3.20
2018-07-07T00:42:03.145Z,3.07
2018-07-07T00:45:02.325Z,3.60
2018-07-07T00:47:30.894Z,2.83
2018-07-07T00:49:59.378Z,3.07
2018-07-07T00:52:27.855Z,2.80
2018-07-07T00:54:56.423Z,3.13
2018-07-07T00:57:25.106Z,3.30
2018-07-07T00:59:53.586Z,2.67
2018-07-07T01:02:23.181Z,2.87
2018-07-07T01:04:53.695Z,3.50
2018-07-07T01:07:23.022Z,3.73
2018-07-07T01:09:51.503Z,3.00
2018-07-07T01:12:20.098Z,2.57
2018-07-07T01:14:49.046Z,2.57
2018-07-07T01:17:17.650Z,2.80
2018-07-07T01:19:46.193Z,3.07
2018-07-07T01:22:14.972Z,3.17
2018-07-07T01:24:43.821Z,2.83
2018-07-07T01:27:12.323Z,3.63
2018-07-07T01:29:41.719Z,2.93
2018-07-07T01:32:10.430Z,3.30
2018-07-07T01:34:39.259Z,3.83
2018-07-07T01:37:07.860Z,2.90
2018-07-07T01:39:36.456Z,2.93
2018-07-07T01:42:05.132Z,3.13
2018-07-07T01:44:33.598Z,2.97
2018-07-07T01:47:02.079Z,3.07
2018-07-07T01:49:30.511Z,3.37
2018-07-07T01:51:58.999Z,3.13
2018-07-07T01:54:27.503Z,3.23
2018-07-07T01:56:55.999Z,3.27
2018-07-07T01:59:24.442Z,3.10
2018-07-07T02:01:52.919Z,2.37
2018-07-07T02:04:21.450Z,3.30
2018-07-07T02:06:49.929Z,2.93
2018-07-07T02:09:18.374Z,2.87
2018-07-07T02:11:46.896Z,2.73
2018-07-07T02:14:15.345Z,2.80
2018-07-07T02:16:43.841Z,3.37
2018-07-07T02:19:12.421Z,2.90
2018-07-07T02:21:40.993Z,3.70
2018-07-07T02:24:09.513Z,2.67
2018-07-07T02:26:38.159Z,3.10
2018-07-07T02:29:06.676Z,3.00
2018-07-07T02:31:35.162Z,3.00
2018-07-07T02:34:03.670Z,2.87
2018-07-07T02:36:32.309Z,3.60
2018-07-07T02:39:00.832Z,3.63
2018-07-07T02:41:29.387Z,3.13
2018-07-07T02:43:58.074Z,2.87
2018-07-07T02:46:26.806Z,2.73
2018-07-07T02:48:55.351Z,2.63
2018-07-07T02:51:23.956Z,3.47
2018-07-07T02:53:52.442Z,3.20
2018-07-07T02:56:21.214Z,3.00
2018-07-07T02:58:50.430Z,3.87
2018-07-07T03:01:19.584Z,4.17
2018-07-07T03:03:48.506Z,4.07
2018-07-07T03:06:17.425Z,3.60
2018-07-07T03:08:46.624Z,3.23
2018-07-07T03:11:15.531Z,3.13
2018-07-07T03:13:44.654Z,3.70
2018-07-07T03:16:13.506Z,3.80
2018-07-07T03:18:42.277Z,4.20
2018-07-07T03:21:10.800Z,3.10
2018-07-07T03:23:39.243Z,3.73
2018-07-07T03:26:07.806Z,3.93
2018-07-07T03:28:36.357Z,4.40
2018-07-07T03:31:04.931Z,3.37
2018-07-07T03:33:33.371Z,3.93
2018-07-07T03:36:01.784Z,3.67
2018-07-07T03:38:30.219Z,3.37
2018-07-07T03:40:58.781Z,4.50
2018-07-07T03:43:27.399Z,4.50
2018-07-07T03:45:55.953Z,3.97
2018-07-07T03:48:24.422Z,3.73
2018-07-07T03:50:52.850Z,4.30
2018-07-07T03:53:21.409Z,4.20
2018-07-07T03:55:49.917Z,4.33
2018-07-07T03:58:18.411Z,3.97
2018-07-07T04:00:46.984Z,4.00
2018-07-07T04:03:15.672Z,4.43
2018-07-07T04:05:44.184Z,4.67
2018-07-07T04:08:12.744Z,3.77
2018-07-07T04:10:41.325Z,3.53
2018-07-07T04:13:09.860Z,4.67
2018-07-07T04:15:38.320Z,4.23
2018-07-07T04:18:07.084Z,5.00
2018-07-07T04:20:35.751Z,3.97
2018-07-07T04:23:04.193Z,3.70
2018-07-07T04:25:32.712Z,3.50
2018-07-07T04:28:01.632Z,3.07
2018-07-07T04:30:32.883Z,3.43
2018-07-07T04:33:01.365Z,3.40
2018-07-07T04:35:29.796Z,3.50
2018-07-07T04:37:58.333Z,3.73
2018-07-07T04:40:26.854Z,5.10
2018-07-07T04:42:55.344Z,3.63
2018-07-07T04:45:23.889Z,4.13
2018-07-07T04:47:52.363Z,3.77
2018-07-07T04:50:20.826Z,3.33
2018-07-07T04:52:49.349Z,4.30
2018-07-07T04:55:17.959Z,3.87
2018-07-07T04:57:46.452Z,3.60
2018-07-07T05:00:14.984Z,3.53
2018-07-07T05:02:43.530Z,4.30
2018-07-07T05:05:12.036Z,3.93
2018-07-07T05:07:40.522Z,3.87
2018-07-07T05:10:09.083Z,3.13
2018-07-07T05:12:37.619Z,3.83
2018-07-07T05:15:06.177Z,3.43
2018-07-07T05:17:34.727Z,3.53
2018-07-07T05:20:03.236Z,2.77
2018-07-07T05:22:31.810Z,3.63
2018-07-07T05:25:00.811Z,3.60
2018-07-07T05:27:29.371Z,3.00
2018-07-07T05:29:58.524Z,3.57
2018-07-07T05:32:27.121Z,3.43
2018-07-07T05:34:58.072Z,3.57
2018-07-07T05:37:27.257Z,2.90
2018-07-07T05:39:56.285Z,3.87
2018-07-07T05:42:25.052Z,3.30
2018-07-07T05:44:55.808Z,2.93
2018-07-07T05:47:24.361Z,3.73
2018-07-07T05:49:52.946Z,3.80
2018-07-07T05:52:21.577Z,2.97
2018-07-07T05:54:50.312Z,2.70
2018-07-07T05:57:19.009Z,2.60
2018-07-07T05:59:47.725Z,2.83
2018-07-07T06:02:18.260Z,2.70
2018-07-07T06:04:46.727Z,2.63
2018-07-07T06:07:15.593Z,3.20
2018-07-07T06:09:44.214Z,2.10
2018-07-07T06:12:13.769Z,2.53
2018-07-07T06:14:42.430Z,2.30
2018-07-07T06:17:10.877Z,2.97
2018-07-07T06:19:39.487Z,2.83
2018-07-07T06:22:08.092Z,2.50
2018-07-07T06:24:37.582Z,2.60
2018-07-07T06:27:06.520Z,3.53
2018-07-07T06:29:34.996Z,2.53
2018-07-07T06:32:03.586Z,3.03
2018-07-07T06:34:32.113Z,3.20
2018-07-07T06:37:00.829Z,2.77
2018-07-07T06:39:29.349Z,3.13
2018-07-07T06:41:59.393Z,3.00
2018-07-07T06:44:27.961Z,2.73
2018-07-07T06:46:56.636Z,2.47
2018-07-07T06:49:25.092Z,2.47
2018-07-07T06:51:53.509Z,3.40
2018-07-07T06:54:22.063Z,3.00
2018-07-07T06:56:50.628Z,2.70
2018-07-07T06:59:19.503Z,2.87
2018-07-07T07:01:49.392Z,3.27
2018-07-07T07:04:18.306Z,3.37
2018-07-07T07:06:47.198Z,2.90
2018-07-07T07:09:15.791Z,3.20
2018-07-07T07:11:44.333Z,2.97
2018-07-07T07:14:12.983Z,2.93
2018-07-07T07:16:41.448Z,2.60
2018-07-07T07:19:11.175Z,2.80
2018-07-07T07:21:39.696Z,3.27
2018-07-07T07:24:08.258Z,3.50
2018-07-07T07:26:36.804Z,3.10
2018-07-07T07:29:05.549Z,3.47
2018-07-07T07:31:34.026Z,2.70
2018-07-07T07:34:02.681Z,2.40
2018-07-07T07:36:40.004Z,2.73
2018-07-07T07:39:08.569Z,2.77
2018-07-07T07:41:37.031Z,2.60
2018-07-07T07:44:05.476Z,3.30
2018-07-07T07:46:33.958Z,3.40
2018-07-07T07:49:12.085Z,3.17
2018-07-07T07:51:40.628Z,2.90
2018-07-07T07:54:09.210Z,3.20
2018-07-07T07:56:37.608Z,3.70
2018-07-07T07:59:06.129Z,3.27
2018-07-07T08:01:34.504Z,3.10
2018-07-07T08:04:02.987Z,3.47
2018-07-07T08:06:31.603Z,2.87
2018-07-07T08:09:00.074Z,2.83
2018-07-07T08:11:28.629Z,2.90
2018-07-07T08:13:57.119Z,3.00
2018-07-07T08:16:25.611Z,3.27
2018-07-07T08:18:54.119Z,3.07
2018-07-07T08:21:22.527Z,3.30
2018-07-07T08:23:50.996Z,3.47
2018-07-07T08:26:19.646Z,2.83
2018-07-07T08:28:48.158Z,2.73
2018-07-07T08:31:16.716Z,3.10
2018-07-07T08:33:45.386Z,3.17
2018-07-07T08:36:14.210Z,2.97
2018-07-07T08:38:42.959Z,3.20
2018-07-07T08:41:14.280Z,2.83
2018-07-07T08:43:43.103Z,3.20
2018-07-07T08:46:11.484Z,2.70
2018-07-07T08:48:40.123Z,2.90
2018-07-07T08:51:08.883Z,3.67
2018-07-07T08:53:37.268Z,3.70
2018-07-07T08:56:06.233Z,3.40
2018-07-07T08:58:34.757Z,3.07
2018-07-07T09:01:03.148Z,3.03
2018-07-07T09:03:31.600Z,3.20
2018-07-07T09:06:00.075Z,3.37
2018-07-07T09:08:28.917Z,3.17
2018-07-07T09:10:57.499Z,2.93
2018-07-07T09:13:25.887Z,3.47
2018-07-07T09:15:54.341Z,3.20
2018-07-07T09:18:23.259Z,3.27
2018-07-07T09:20:51.895Z,3.10
2018-07-07T09:23:20.402Z,2.60
2018-07-07T09:25:49.216Z,2.97
2018-07-07T09:28:17.875Z,3.10
2018-07-07T09:30:46.356Z,3.00
2018-07-07T09:33:15.001Z,3.57
2018-07-07T09:35:43.474Z,2.90
2018-07-07T09:38:11.915Z,2.97
2018-07-07T09:40:40.616Z,2.87
2018-07-07T09:43:09.060Z,3.20
2018-07-07T09:45:37.881Z,3.30
2018-07-07T09:48:06.301Z,2.60
2018-07-07T09:50:35.194Z,2.40
2018-07-07T09:53:03.876Z,3.57
2018-07-07T09:55:32.564Z,3.07
2018-07-07T09:58:01.044Z,2.50
2018-07-07T10:00:34.780Z,2.30
2018-07-07T10:03:03.210Z,2.33
2018-07-07T10:05:31.612Z,2.53
2018-07-07T10:08:00.064Z,2.53
2018-07-07T10:10:28.562Z,2.73
2018-07-07T10:12:57.044Z,3.00
2018-07-07T10:15:25.820Z,2.83
2018-07-07T10:17:54.278Z,2.97
2018-07-07T10:20:23.035Z,2.80
2018-07-07T10:22:51.471Z,3.07
2018-07-07T10:25:20.168Z,2.60
2018-07-07T10:27:48.702Z,2.70
2018-07-07T10:30:17.164Z,2.77
2018-07-07T10:32:45.885Z,2.13
2018-07-07T10:35:14.296Z,2.57
2018-07-07T10:37:42.873Z,3.13
2018-07-07T10:40:11.347Z,2.30
2018-07-07T10:42:39.884Z,2.77
2018-07-07T10:45:08.362Z,2.13
2018-07-07T10:47:36.821Z,2.30
2018-07-07T10:50:05.508Z,2.30
2018-07-07T10:52:33.990Z,2.50
2018-07-07T10:55:02.409Z,2.40
2018-07-07T10:57:31.118Z,2.60
2018-07-07T10:59:59.661Z,2.43
2018-07-07T11:02:28.624Z,2.30
2018-07-07T11:04:55.997Z,2.67
2018-07-07T11:07:24.751Z,2.90
2018-07-07T11:09:53.213Z,2.77
2018-07-07T11:12:21.890Z,2.47
2018-07-07T11:14:50.497Z,1.93
2018-07-07T11:17:19.022Z,2.37
2018-07-07T11:19:47.469Z,2.03
2018-07-07T11:22:15.925Z,1.93
2018-07-07T11:24:44.648Z,1.80
2018-07-07T11:27:13.190Z,2.43
2018-07-07T11:29:42.350Z,2.23
2018-07-07T11:32:10.750Z,2.20
2018-07-07T11:34:39.175Z,2.23
2018-07-07T11:37:07.727Z,2.77
2018-07-07T11:39:36.357Z,2.10
2018-07-07T11:42:04.838Z,1.97
2018-07-07T11:44:33.273Z,2.53
2018-07-07T11:47:01.771Z,2.30
2018-07-07T11:49:30.639Z,2.00
2018-07-07T11:51:59.122Z,2.40
2018-07-07T11:54:27.522Z,2.10
2018-07-07T11:56:55.921Z,2.53
2018-07-07T11:59:24.360Z,2.40
2018-07-07T12:01:52.807Z,2.40
2018-07-07T12:04:21.428Z,3.00
2018-07-07T12:06:49.890Z,2.50
2018-07-07T12:09:18.301Z,2.63
2018-07-07T12:11:47.262Z,2.20
2018-07-07T12:14:16.000Z,1.77
2018-07-07T12:16:44.506Z,2.33
2018-07-07T12:19:12.951Z,1.97
2018-07-07T12:21:41.392Z,1.70
2018-07-07T12:24:09.901Z,2.20
2018-07-07T12:26:38.439Z,2.53
2018-07-07T12:29:06.919Z,2.87
2018-07-07T12:31:35.506Z,2.83
2018-07-07T12:34:03.961Z,2.83
2018-07-07T12:36:32.477Z,2.63
2018-07-07T12:39:01.271Z,2.27
2018-07-07T12:41:29.684Z,2.40
2018-07-07T12:43:58.394Z,2.50
2018-07-07T12:46:26.870Z,2.60
2018-07-07T12:48:55.306Z,2.70
2018-07-07T12:51:23.712Z,3.00
2018-07-07T12:53:52.116Z,2.73
2018-07-07T12:56:20.547Z,2.20
2018-07-07T12:58:48.988Z,2.27
2018-07-07T13:01:17.555Z,2.10
2018-07-07T13:03:45.987Z,2.50
2018-07-07T13:06:14.697Z,2.10
2018-07-07T13:08:43.519Z,2.20
2018-07-07T13:11:11.952Z,1.90
2018-07-07T13:13:40.477Z,2.33
2018-07-07T13:16:09.005Z,2.00
2018-07-07T13:18:37.595Z,2.57
2018-07-07T13:21:06.167Z,2.50
2018-07-07T13:23:34.647Z,2.10
2018-07-07T13:26:03.164Z,2.03
2018-07-07T13:28:33.069Z,2.33
2018-07-07T13:31:01.935Z,2.37
2018-07-07T13:33:30.447Z,2.43
2018-07-07T13:35:58.944Z,2.53
2018-07-07T13:38:27.527Z,2.77
2018-07-07T13:40:56.057Z,2.50
2018-07-07T13:43:24.502Z,2.53
2018-07-07T13:45:53.044Z,2.33
2018-07-07T13:48:21.635Z,2.40
2018-07-07T13:50:50.123Z,2.43
2018-07-07T13:53:18.639Z,2.30
2018-07-07T13:55:47.169Z,2.67
2018-07-07T13:58:15.607Z,2.67
2018-07-07T14:00:44.135Z,2.37
2018-07-07T14:03:13.095Z,2.50
2018-07-07T14:05:41.644Z,2.77
2018-07-07T14:08:10.056Z,2.70
2018-07-07T14:10:38.568Z,2.50
2018-07-07T14:13:06.992Z,2.70
2018-07-07T14:15:35.395Z,3.17
2018-07-07T14:18:03.876Z,2.33
2018-07-07T14:20:32.838Z,2.50
2018-07-07T14:23:01.337Z,2.83
2018-07-07T14:25:29.853Z,2.40
2018-07-07T14:27:58.298Z,2.40
2018-07-07T14:30:26.780Z,2.40
2018-07-07T14:32:55.238Z,2.20
2018-07-07T14:35:23.746Z,2.33
2018-07-07T14:37:52.200Z,2.50
2018-07-07T14:40:20.725Z,2.00
2018-07-07T14:42:51.241Z,2.37
2018-07-07T14:45:26.427Z,2.00
2018-07-07T14:47:55.960Z,2.00
2018-07-07T14:50:24.660Z,2.93
2018-07-07T14:52:53.202Z,2.40
2018-07-07T14:55:23.074Z,2.30
2018-07-07T14:57:51.612Z,2.60
2018-07-07T15:00:22.185Z,2.10
2018-07-07T15:02:51.777Z,2.20
2018-07-07T15:05:20.292Z,2.13
2018-07-07T15:07:49.238Z,2.40
2018-07-07T15:10:17.856Z,2.70
2018-07-07T15:12:46.966Z,2.77
2018-07-07T15:15:15.670Z,2.30
2018-07-07T15:17:44.898Z,2.40
2018-07-07T15:20:13.325Z,2.47
2018-07-07T15:22:41.903Z,2.30
2018-07-07T15:25:10.278Z,2.10
2018-07-07T15:27:38.777Z,2.50
2018-07-07T15:30:08.376Z,2.33
2018-07-07T15:32:36.979Z,2.10
2018-07-07T15:35:05.577Z,2.03
2018-07-07T15:37:34.124Z,2.03
2018-07-07T15:40:02.616Z,2.40
2018-07-07T15:42:31.046Z,2.20
2018-07-07T15:44:59.435Z,2.20
2018-07-07T15:47:27.864Z,2.10
2018-07-07T15:49:56.318Z,1.90
2018-07-07T15:52:24.785Z,1.87
2018-07-07T15:54:53.260Z,2.50
2018-07-07T15:57:21.816Z,2.23
2018-07-07T15:59:51.281Z,2.70
2018-07-07T16:02:19.731Z,2.27
2018-07-07T16:04:48.156Z,2.20
2018-07-07T16:07:16.624Z,1.90
2018-07-07T16:09:45.180Z,1.90
2018-07-07T16:12:13.647Z,2.13
2018-07-07T16:14:42.106Z,2.27
2018-07-07T16:17:10.522Z,1.93
2018-07-07T16:19:38.962Z,2.00
2018-07-07T16:22:07.465Z,2.23
2018-07-07T16:24:35.904Z,2.00
2018-07-07T16:27:05.067Z,1.77
2018-07-07T16:29:33.499Z,2.40
2018-07-07T16:32:01.959Z,1.87
2018-07-07T16:34:30.420Z,2.20
2018-07-07T16:36:58.898Z,1.97
2018-07-07T16:39:27.396Z,1.83
2018-07-07T16:41:56.496Z,2.50
2018-07-07T16:44:25.804Z,3.40
2018-07-07T16:46:54.964Z,2.30
2018-07-07T16:49:23.423Z,2.27
2018-07-07T16:51:51.962Z,2.30
2018-07-07T16:54:21.506Z,2.23
2018-07-07T16:56:50.054Z,1.67
2018-07-07T16:59:19.286Z,2.73
2018-07-07T17:01:49.872Z,2.10
2018-07-07T17:04:18.368Z,3.07
2018-07-07T17:06:46.905Z,2.30
2018-07-07T17:09:15.878Z,3.20
2018-07-07T17:11:44.543Z,2.53
2018-07-07T17:14:13.468Z,2.10
2018-07-07T17:16:44.184Z,2.17
2018-07-07T17:19:15.210Z,1.97
2018-07-07T17:21:44.715Z,1.90
2018-07-07T17:24:13.829Z,2.00
2018-07-07T17:26:42.330Z,2.27
2018-07-07T17:29:11.062Z,2.37
2018-07-07T17:31:39.557Z,2.47
2018-07-07T17:34:07.978Z,2.20
2018-07-07T17:36:36.996Z,2.53
2018-07-07T17:39:05.854Z,2.20
2018-07-07T17:41:35.206Z,2.30
2018-07-07T17:44:03.973Z,1.90
2018-07-07T17:46:32.715Z,2.40
2018-07-07T17:49:01.225Z,2.10
2018-07-07T17:51:30.317Z,1.77
2018-07-07T17:53:59.699Z,2.30
2018-07-07T17:56:28.503Z,2.20
2018-07-07T17:58:56.990Z,2.00
2018-07-07T18:01:25.985Z,1.87
2018-07-07T18:03:54.713Z,2.20
2018-07-07T18:06:23.168Z,2.00
2018-07-07T18:08:51.692Z,1.93
2018-07-07T18:11:20.260Z,2.03
2018-07-07T18:13:49.061Z,2.70
2018-07-07T18:16:17.805Z,2.07
2018-07-07T18:18:46.294Z,2.00
2018-07-07T18:21:14.726Z,2.13
2018-07-07T18:23:43.232Z,2.57
2018-07-07T18:26:11.674Z,2.03
2018-07-07T18:28:40.287Z,2.47
2018-07-07T18:31:09.060Z,2.40
2018-07-07T18:33:37.487Z,2.67
2018-07-07T18:36:06.109Z,1.80
2018-07-07T18:38:34.541Z,2.33
2018-07-07T18:41:03.421Z,2.10
2018-07-07T18:43:32.096Z,2.07
2018-07-07T18:46:00.944Z,1.70
2018-07-07T18:48:29.443Z,1.87
2018-07-07T18:50:57.920Z,2.03
2018-07-07T18:53:26.428Z,1.87
2018-07-07T18:55:54.887Z,2.10
2018-07-07T18:58:23.373Z,1.73
2018-07-07T19:00:52.010Z,1.63
2018-07-07T19:03:20.450Z,1.60
2018-07-07T19:05:49.071Z,1.60
2018-07-07T19:08:17.807Z,1.53
2018-07-07T19:10:47.424Z,1.60
2018-07-07T19:13:15.941Z,1.40
2018-07-07T19:15:47.468Z,1.70
2018-07-07T19:18:16.563Z,1.50
2018-07-07T19:20:50.164Z,1.37
2018-07-07T19:23:23.967Z,1.80
2018-07-07T19:25:57.944Z,1.60
2018-07-07T19:28:26.984Z,2.03
2018-07-07T19:30:55.495Z,1.47
2018-07-07T19:33:29.429Z,1.53
2018-07-07T19:36:03.664Z,1.33
2018-07-07T19:38:32.212Z,1.60
2018-07-07T19:41:00.688Z,1.60
2018-07-07T19:43:29.156Z,1.83
2018-07-07T19:45:57.708Z,2.13
2018-07-07T19:48:26.185Z,1.60
2018-07-07T19:50:54.609Z,1.80
2018-07-07T19:53:23.232Z,2.40
2018-07-07T19:55:51.972Z,1.60
2018-07-07T19:58:20.652Z,2.17
2018-07-07T20:00:49.626Z,1.47
2018-07-07T20:03:18.166Z,1.73
2018-07-07T20:05:46.690Z,1.93
2018-07-07T20:08:15.823Z,1.80
2018-07-07T20:10:44.326Z,1.17
2018-07-07T20:13:12.784Z,1.80
2018-07-07T20:16:06.822Z,1.77
2018-07-07T20:18:45.691Z,1.90
2018-07-07T20:21:30.683Z,2.00
2018-07-07T20:23:59.147Z,1.87
2018-07-07T20:26:27.599Z,1.70
2018-07-07T20:28:57.107Z,2.10
2018-07-07T20:31:25.795Z,1.70
2018-07-07T20:33:54.474Z,1.97
2018-07-07T20:36:23.291Z,1.80
2018-07-07T20:38:52.021Z,2.17
2018-07-07T20:41:20.723Z,1.60
2018-07-07T20:43:49.210Z,2.00
2018-07-07T20:46:17.629Z,1.80
2018-07-07T20:48:46.489Z,1.77
2018-07-07T20:51:15.281Z,2.10
2018-07-07T20:53:43.688Z,1.70
2018-07-07T20:56:12.147Z,1.73
2018-07-07T20:58:40.762Z,1.73
2018-07-07T21:01:09.230Z,1.40
2018-07-07T21:03:37.674Z,1.60
2018-07-07T21:06:06.192Z,1.27
2018-07-07T21:08:34.948Z,2.37
2018-07-07T21:11:03.438Z,1.70
2018-07-07T21:13:31.918Z,2.10
2018-07-07T21:16:01.966Z,1.70
2018-07-07T21:18:30.519Z,1.70
2018-07-07T21:20:59.240Z,1.80
2018-07-07T21:23:27.787Z,1.70
2018-07-07T21:25:56.718Z,1.40
2018-07-07T21:28:25.405Z,1.83
2018-07-07T21:30:54.120Z,1.70
2018-07-07T21:33:22.595Z,1.60
2018-07-07T21:35:51.238Z,1.83
2018-07-07T21:38:19.743Z,1.53
2018-07-07T21:40:48.230Z,2.13
2018-07-07T21:43:16.724Z,2.27
2018-07-07T21:45:45.560Z,1.80
2018-07-07T21:48:14.052Z,1.93
2018-07-07T21:50:42.454Z,1.53
2018-07-07T21:53:11.049Z,1.63
2018-07-07T21:55:39.902Z,1.90
2018-07-07T21:58:13.738Z,1.73
2018-07-07T22:01:00.117Z,1.67
2018-07-07T22:03:33.789Z,1.80
2018-07-07T22:06:08.394Z,1.90
2018-07-07T22:08:37.841Z,1.77
2018-07-07T22:11:06.753Z,1.70
2018-07-07T22:13:35.276Z,1.80
2018-07-07T22:16:03.804Z,1.67
2018-07-07T22:18:32.593Z,1.90
2018-07-07T22:21:12.806Z,1.80
2018-07-07T22:23:41.544Z,1.90
2018-07-07T22:26:10.335Z,2.30
2018-07-07T22:28:38.859Z,2.17
2018-07-07T22:31:07.320Z,1.83
2018-07-07T22:33:36.418Z,1.87
2018-07-07T22:36:36.340Z,2.10
2018-07-07T22:39:05.230Z,1.93
2018-07-07T22:41:59.373Z,2.40
2018-07-07T22:44:28.203Z,1.73
2018-07-07T22:46:57.191Z,2.33
2018-07-07T22:49:26.692Z,2.47
2018-07-07T22:51:55.381Z,2.17
2018-07-07T22:54:23.930Z,2.40
2018-07-07T22:56:52.526Z,2.00
2018-07-07T22:59:21.100Z,1.90
2018-07-07T23:01:49.716Z,2.33
2018-07-07T23:04:18.201Z,2.40
2018-07-07T23:06:47.378Z,2.20
2018-07-07T23:09:17.196Z,2.10
2018-07-07T23:11:45.724Z,1.77
2018-07-07T23:14:14.172Z,2.67
2018-07-07T23:16:42.863Z,2.47
2018-07-07T23:19:11.478Z,2.33
2018-07-07T23:21:40.013Z,2.40
2018-07-07T23:24:08.501Z,2.10
2018-07-07T23:26:37.028Z,2.33
2018-07-07T23:29:05.684Z,2.13
2018-07-07T23:31:34.231Z,2.83
2018-07-07T23:34:03.706Z,2.47
2018-07-07T23:36:32.324Z,2.30
2018-07-07T23:39:00.971Z,2.53
2018-07-07T23:41:29.451Z,2.30
2018-07-07T23:43:58.024Z,2.47
2018-07-07T23:46:26.679Z,2.20
2018-07-07T23:48:55.296Z,2.97
2018-07-07T23:51:23.953Z,2.67
2018-07-07T23:53:52.547Z,2.30
2018-07-07T23:56:21.082Z,2.73
2018-07-07T23:58:49.563Z,2.70
